Time;durP1;ratioP1;P1;durP2;ratioP2;P2;SDS_P1;SDS_P2;PMS_P1;PMS_P2;Temp;Humidity;BMP_temperature;BMP_pressure;BME280_temperature;BME280_humidity;BME280_pressure;Samples;Min_cycle;Max_cycle;Signal;HPM_P1;HPM_P2
2021/12/19 00:01:48;;;;;;;25.07;14.33;;;8.30;99.90;;;;;;5015091;28;20155;-89
2021/12/19 00:09:30;;;;;;;24.57;13.87;;;8.30;99.90;;;;;;5015022;28;20034;-89
2021/12/19 00:11:57;;;;;;;23.30;13.33;;;8.30;99.90;;;;;;4998605;28;20029;-89
2021/12/19 00:14:23;;;;;;;22.60;13.17;;;8.20;99.90;;;;;;4998511;28;20029;-88
2021/12/19 00:16:50;;;;;;;21.97;13.20;;;8.30;99.90;;;;;;4998637;28;20033;-88
2021/12/19 00:19:17;;;;;;;24.63;13.53;;;8.30;99.90;;;;;;4998674;28;20384;-88
2021/12/19 00:21:44;;;;;;;23.00;13.13;;;8.30;99.90;;;;;;5014876;28;20127;-88
2021/12/19 00:24:10;;;;;;;22.27;12.83;;;8.20;99.90;;;;;;5014779;28;20037;-88
2021/12/19 00:26:36;;;;;;;20.77;12.07;;;8.20;99.90;;;;;;4998565;28;20400;-89
2021/12/19 00:29:03;;;;;;;21.37;12.80;;;8.20;99.90;;;;;;5032274;28;20029;-88
2021/12/19 00:31:30;;;;;;;25.17;13.27;;;8.30;99.90;;;;;;5014848;28;20033;-88
2021/12/19 00:33:59;;;;;;;23.73;12.63;;;8.30;99.90;;;;;;4998331;28;20103;-89
2021/12/19 00:36:25;;;;;;;21.58;12.85;;;8.30;99.90;;;;;;4998245;28;20037;-89
2021/12/19 00:38:51;;;;;;;24.27;13.73;;;8.20;99.90;;;;;;4997449;28;20044;-87
2021/12/19 00:41:17;;;;;;;24.67;14.00;;;8.20;99.90;;;;;;4998151;28;20030;-89
2021/12/19 00:43:47;;;;;;;23.17;13.10;;;8.20;99.90;;;;;;5014874;28;20036;-89
2021/12/19 00:46:16;;;;;;;20.55;11.63;;;8.20;99.90;;;;;;5014718;28;20040;-88
2021/12/19 00:48:52;;;;;;;21.73;12.43;;;8.20;99.90;;;;;;4998062;28;20068;-89
2021/12/19 00:51:22;;;;;;;21.00;11.63;;;8.20;99.90;;;;;;4998180;28;20271;-88
2021/12/19 00:53:50;;;;;;;22.87;12.70;;;8.20;99.90;;;;;;5014501;28;20528;-89
2021/12/19 00:56:16;;;;;;;25.23;12.90;;;8.30;99.90;;;;;;5014808;28;20033;-89
2021/12/19 00:58:43;;;;;;;27.77;13.53;;;8.20;99.90;;;;;;4997897;28;20029;-88
2021/12/19 01:01:10;;;;;;;23.97;13.23;;;8.20;99.90;;;;;;4998122;28;20030;-88
2021/12/19 01:03:36;;;;;;;25.93;13.57;;;8.10;99.90;;;;;;5032113;28;20078;-87
2021/12/19 01:06:03;;;;;;;26.33;12.90;;;8.10;99.90;;;;;;4998032;28;20131;-88
2021/12/19 01:08:29;;;;;;;27.30;13.57;;;8.10;99.90;;;;;;4997908;28;20191;-88
2021/12/19 01:10:55;;;;;;;23.30;12.87;;;8.20;99.90;;;;;;5014445;28;20113;-89
2021/12/19 01:13:21;;;;;;;22.43;12.37;;;8.20;99.90;;;;;;5014339;28;20037;-88
2021/12/19 01:15:47;;;;;;;20.07;11.90;;;8.20;99.90;;;;;;4997946;28;20033;-89
2021/12/19 01:18:14;;;;;;;17.97;11.80;;;8.10;99.90;;;;;;4997616;28;20029;-88
2021/12/19 01:20:41;;;;;;;19.33;10.90;;;8.20;99.90;;;;;;4998213;28;20034;-89
2021/12/19 01:23:09;;;;;;;20.83;11.07;;;8.20;99.90;;;;;;5014095;28;20116;-88
2021/12/19 01:25:35;;;;;;;18.73;11.07;;;8.20;99.90;;;;;;4997829;28;20044;-88
2021/12/19 01:28:01;;;;;;;21.20;12.13;;;8.20;99.90;;;;;;5031945;28;20038;-87
2021/12/19 01:30:27;;;;;;;23.20;12.20;;;8.20;99.90;;;;;;4997961;28;20033;-87
2021/12/19 01:32:53;;;;;;;19.93;10.97;;;8.20;99.90;;;;;;5031842;28;20400;-87
2021/12/19 01:35:21;;;;;;;18.73;10.53;;;8.20;99.90;;;;;;5014096;28;20029;-87
2021/12/19 01:37:47;;;;;;;19.80;10.70;;;8.20;99.90;;;;;;4997822;28;20036;-87
2021/12/19 01:40:15;;;;;;;19.43;10.73;;;8.10;99.90;;;;;;4997899;28;20026;-87
2021/12/19 01:42:43;;;;;;;20.67;10.93;;;8.10;99.90;;;;;;4997722;28;20510;-87
2021/12/19 01:45:12;;;;;;;19.13;10.73;;;8.10;99.90;;;;;;4997938;28;20041;-88
2021/12/19 01:47:38;;;;;;;19.23;10.93;;;8.20;99.90;;;;;;5014708;28;20029;-88
2021/12/19 01:50:07;;;;;;;18.17;9.53;;;8.10;99.90;;;;;;4999594;28;20044;-88
2021/12/19 01:52:32;;;;;;;18.63;10.30;;;8.10;99.90;;;;;;5002379;28;20442;-87
2021/12/19 01:54:58;;;;;;;17.43;9.53;;;8.10;99.90;;;;;;5018535;28;20090;-88
2021/12/19 01:57:25;;;;;;;18.13;10.00;;;8.00;99.90;;;;;;5001888;28;20030;-87
2021/12/19 01:59:52;;;;;;;20.57;10.77;;;8.10;99.90;;;;;;5017959;28;20033;-87
2021/12/19 02:02:18;;;;;;;15.87;9.17;;;8.10;99.90;;;;;;5001893;28;20022;-87
2021/12/19 02:04:44;;;;;;;13.00;7.93;;;8.10;99.90;;;;;;5001248;28;20043;-87
2021/12/19 02:07:11;;;;;;;17.77;9.63;;;8.10;99.90;;;;;;5017429;28;20129;-87
2021/12/19 02:09:38;;;;;;;17.80;9.40;;;8.00;99.90;;;;;;5000921;28;20068;-87
2021/12/19 02:12:05;;;;;;;18.40;10.17;;;8.00;99.90;;;;;;5017400;28;20037;-87
2021/12/19 02:14:31;;;;;;;15.53;8.83;;;8.10;99.90;;;;;;5001081;28;20077;-88
2021/12/19 02:16:56;;;;;;;17.47;9.90;;;8.10;99.90;;;;;;5000932;28;20037;-88
2021/12/19 02:19:24;;;;;;;18.67;10.53;;;8.10;99.90;;;;;;5000924;28;20025;-87
2021/12/19 02:21:51;;;;;;;20.17;10.70;;;8.00;99.90;;;;;;5000928;28;20036;-87
2021/12/19 02:24:17;;;;;;;19.50;10.80;;;8.10;99.90;;;;;;5000731;28;20488;-87
2021/12/19 02:26:43;;;;;;;18.13;9.67;;;8.10;99.90;;;;;;5000853;28;20040;-87
2021/12/19 02:29:10;;;;;;;18.13;10.83;;;8.10;99.90;;;;;;5016974;28;20025;-87
2021/12/19 02:31:37;;;;;;;17.20;10.50;;;8.10;99.90;;;;;;5000725;28;20060;-87
2021/12/19 02:34:12;;;;;;;16.37;10.43;;;8.00;99.90;;;;;;5000707;28;20445;-87
2021/12/19 02:50:25;;;;;;;22.93;11.57;;;8.10;99.90;;;;;;5016543;28;20124;-86
2021/12/19 02:52:52;;;;;;;23.03;12.33;;;8.00;99.90;;;;;;5000195;28;20036;-86
2021/12/19 02:55:19;;;;;;;19.90;11.37;;;8.00;99.90;;;;;;5000137;28;20447;-86
2021/12/19 02:57:47;;;;;;;22.57;11.93;;;8.00;99.90;;;;;;5016142;28;20029;-87
2021/12/19 03:00:16;;;;;;;23.47;12.47;;;8.00;99.90;;;;;;5016570;28;20124;-87
2021/12/19 03:02:42;;;;;;;21.27;11.48;;;8.10;99.90;;;;;;4999318;28;20025;-87
2021/12/19 03:05:08;;;;;;;22.67;12.53;;;8.20;99.90;;;;;;5016293;28;20034;-88
2021/12/19 03:07:39;;;;;;;21.40;11.93;;;8.10;99.90;;;;;;4998042;28;20030;-87
2021/12/19 03:18:02;;;;;;;22.40;11.67;;;8.10;99.90;;;;;;5033596;28;20053;-86
2021/12/19 03:20:30;;;;;;;26.77;14.17;;;8.10;99.90;;;;;;4999677;28;20029;-86
2021/12/19 03:22:58;;;;;;;31.47;16.37;;;8.10;99.90;;;;;;4999650;28;20057;-86
2021/12/19 03:25:25;;;;;;;31.10;15.67;;;8.10;99.90;;;;;;5015956;28;20132;-86
2021/12/19 03:27:51;;;;;;;28.33;14.80;;;8.10;99.90;;;;;;5015502;28;20437;-85
2021/12/19 03:30:17;;;;;;;24.70;13.27;;;8.00;99.90;;;;;;5015858;28;20175;-86
2021/12/19 03:32:43;;;;;;;27.00;14.70;;;8.10;99.90;;;;;;5015724;28;20048;-86
2021/12/19 03:35:10;;;;;;;26.97;13.47;;;8.10;99.90;;;;;;4999441;28;20030;-86
2021/12/19 03:37:36;;;;;;;24.40;13.60;;;8.00;99.90;;;;;;4999172;28;20033;-86
2021/12/19 03:40:09;;;;;;;24.07;13.07;;;8.10;99.90;;;;;;4999271;28;20060;-86
2021/12/19 03:42:39;;;;;;;21.27;12.00;;;8.10;99.90;;;;;;4999336;28;20022;-86
2021/12/19 03:45:08;;;;;;;22.53;12.87;;;8.00;99.90;;;;;;5015722;28;20033;-86
2021/12/19 03:47:34;;;;;;;23.95;12.27;;;8.00;99.90;;;;;;4999021;28;20492;-86
2021/12/19 03:50:02;;;;;;;20.17;11.43;;;8.00;99.90;;;;;;5031953;28;20495;-86
2021/12/19 03:52:28;;;;;;;23.40;12.23;;;8.00;99.90;;;;;;4999005;28;20476;-86
2021/12/19 03:54:55;;;;;;;22.50;11.90;;;8.00;99.90;;;;;;5015168;28;20034;-86
2021/12/19 03:57:21;;;;;;;21.83;12.17;;;8.00;99.90;;;;;;5032848;28;20060;-86
2021/12/19 03:59:49;;;;;;;23.77;11.77;;;8.00;99.90;;;;;;5016577;28;20036;-87
2021/12/19 04:02:25;;;;;;;20.43;11.27;;;8.00;99.90;;;;;;5016642;28;20028;-86
2021/12/19 04:04:52;;;;;;;20.73;11.50;;;8.00;99.90;;;;;;5016754;28;20481;-86
2021/12/19 04:07:17;;;;;;;18.97;11.00;;;8.00;99.90;;;;;;5000087;28;20399;-86
2021/12/19 04:09:43;;;;;;;19.63;10.93;;;8.00;99.90;;;;;;5016497;28;20037;-86
2021/12/19 04:12:09;;;;;;;15.60;9.17;;;8.00;99.90;;;;;;5034383;28;20033;-86
2021/12/19 04:14:35;;;;;;;17.67;9.97;;;8.00;99.90;;;;;;5000477;28;20033;-86
2021/12/19 04:17:02;;;;;;;16.10;8.90;;;8.00;99.90;;;;;;5000445;28;20030;-86
2021/12/19 04:19:29;;;;;;;14.33;8.20;;;7.90;99.90;;;;;;4999813;28;20032;-86
2021/12/19 04:21:55;;;;;;;15.93;8.80;;;8.00;99.90;;;;;;5017267;28;20477;-86
2021/12/19 04:24:21;;;;;;;12.90;7.43;;;8.00;99.90;;;;;;5000721;28;20102;-86
2021/12/19 04:26:47;;;;;;;12.03;6.97;;;8.10;99.90;;;;;;5000184;28;20033;-86
2021/12/19 04:29:13;;;;;;;12.90;6.67;;;8.00;99.90;;;;;;4999275;28;20119;-86
2021/12/19 04:31:40;;;;;;;12.33;6.60;;;7.90;99.90;;;;;;5014893;28;20451;-86
2021/12/19 04:34:06;;;;;;;11.87;6.00;;;7.90;99.90;;;;;;5015756;28;20037;-86
2021/12/19 04:36:38;;;;;;;12.87;6.90;;;7.80;99.90;;;;;;5000244;28;20029;-86
2021/12/19 04:53:21;;;;;;;11.90;5.97;;;7.60;99.90;;;;;;5016904;28;20416;-87
2021/12/19 04:56:41;;;;;;;15.17;7.93;;;7.60;99.90;;;;;;5014707;28;20029;-86
2021/12/19 05:05:03;;;;;;;19.97;8.07;;;7.50;99.90;;;;;;5019093;28;20041;-87
2021/12/19 05:15:36;;;;;;;16.23;7.63;;;7.60;99.90;;;;;;5032066;28;20075;-86
2021/12/19 05:18:06;;;;;;;16.87;8.23;;;7.50;99.90;;;;;;5014385;28;20453;-87
2021/12/19 05:20:33;;;;;;;18.80;8.30;;;7.50;99.90;;;;;;4998243;28;20491;-87
2021/12/19 05:23:08;;;;;;;21.23;8.40;;;7.50;99.90;;;;;;4997950;28;20098;-87
2021/12/19 05:25:33;;;;;;;18.33;8.17;;;7.60;99.90;;;;;;5016892;28;20037;-87
2021/12/19 05:28:00;;;;;;;15.53;7.37;;;7.50;99.90;;;;;;5001826;28;20041;-87
2021/12/19 05:30:26;;;;;;;17.53;7.87;;;7.50;99.90;;;;;;5002106;28;20034;-87
2021/12/19 05:32:54;;;;;;;15.57;7.40;;;7.60;99.90;;;;;;5001800;28;20060;-87
2021/12/19 05:35:53;;;;;;;13.00;6.63;;;7.60;99.90;;;;;;5001848;28;20476;-87
2021/12/19 05:46:29;;;;;;;15.20;7.10;;;7.70;99.90;;;;;;5016754;28;20483;-87
2021/12/19 05:48:55;;;;;;;17.13;7.73;;;7.60;99.90;;;;;;5031929;28;20073;-86
2021/12/19 05:51:21;;;;;;;16.53;7.20;;;7.60;99.90;;;;;;4991277;28;20033;-86
2021/12/19 05:53:47;;;;;;;20.17;9.60;;;7.60;99.90;;;;;;5016492;28;20072;-85
2021/12/19 05:56:13;;;;;;;20.90;9.80;;;7.50;99.90;;;;;;5016504;28;20061;-86
2021/12/19 05:58:39;;;;;;;16.83;8.50;;;7.60;99.90;;;;;;5015931;28;20029;-86
2021/12/19 06:01:05;;;;;;;19.53;9.53;;;7.60;99.90;;;;;;5004398;28;20037;-86
2021/12/19 06:03:31;;;;;;;19.43;8.80;;;7.60;99.90;;;;;;5000026;28;20036;-86
2021/12/19 06:05:56;;;;;;;19.10;9.60;;;7.60;99.90;;;;;;5000955;28;20064;-86
2021/12/19 06:08:22;;;;;;;20.53;9.73;;;7.50;99.90;;;;;;5016496;28;20025;-87
2021/12/19 06:10:49;;;;;;;21.10;9.53;;;7.60;99.90;;;;;;5016967;28;20400;-87
2021/12/19 06:13:15;;;;;;;21.17;10.40;;;7.50;99.90;;;;;;5000635;28;20029;-87
2021/12/19 06:15:41;;;;;;;19.07;9.60;;;7.60;99.90;;;;;;5016603;28;20519;-86
2021/12/19 06:18:07;;;;;;;21.17;9.83;;;7.60;99.90;;;;;;4999538;28;20066;-86
2021/12/19 06:20:33;;;;;;;22.27;10.57;;;7.60;99.90;;;;;;5016099;28;20069;-87
2021/12/19 06:22:59;;;;;;;28.13;11.73;;;7.60;99.90;;;;;;4997657;28;20164;-86
2021/12/19 06:25:25;;;;;;;23.60;11.57;;;7.60;99.90;;;;;;5000694;28;20033;-85
2021/12/19 06:27:51;;;;;;;25.93;11.77;;;7.60;99.90;;;;;;5000269;28;20033;-86
2021/12/19 06:30:17;;;;;;;25.37;12.03;;;7.60;99.90;;;;;;5017231;28;20029;-86
2021/12/19 06:32:43;;;;;;;25.07;10.80;;;7.70;99.90;;;;;;5016883;28;20025;-86
2021/12/19 06:35:17;;;;;;;22.47;10.43;;;7.70;99.90;;;;;;5017691;28;20038;-86
2021/12/19 06:37:47;;;;;;;22.27;11.03;;;7.70;99.90;;;;;;5015616;28;20120;-85
2021/12/19 06:40:17;;;;;;;26.53;11.60;;;7.80;99.90;;;;;;4999239;28;20061;-86
2021/12/19 06:42:43;;;;;;;28.10;12.10;;;7.80;99.90;;;;;;5026360;28;20135;-86
2021/12/19 06:45:10;;;;;;;23.70;10.40;;;8.00;99.90;;;;;;5015325;28;20500;-86
2021/12/19 06:47:36;;;;;;;23.60;10.80;;;8.00;99.90;;;;;;5015279;28;20064;-86
2021/12/19 06:50:02;;;;;;;18.23;9.50;;;8.10;99.90;;;;;;5015280;28;20671;-86
2021/12/19 06:52:28;;;;;;;28.00;12.37;;;8.10;99.90;;;;;;4999376;28;20026;-87
2021/12/19 06:54:54;;;;;;;24.60;11.90;;;8.20;99.90;;;;;;5015430;28;20408;-86
2021/12/19 06:57:19;;;;;;;26.47;10.73;;;8.10;99.90;;;;;;5015509;28;20029;-86
2021/12/19 06:59:47;;;;;;;21.33;9.77;;;8.00;99.90;;;;;;4998509;28;20025;-86
2021/12/19 07:02:16;;;;;;;22.93;10.37;;;7.90;99.90;;;;;;5015556;28;20025;-86
2021/12/19 07:04:45;;;;;;;22.25;10.73;;;7.80;99.90;;;;;;4999219;28;20155;-86
2021/12/19 07:07:12;;;;;;;19.05;10.20;;;7.80;99.90;;;;;;5015305;28;20041;-86
2021/12/19 07:09:38;;;;;;;27.53;12.07;;;7.70;99.90;;;;;;4998452;28;20036;-86
2021/12/19 07:12:05;;;;;;;29.37;12.10;;;7.70;99.90;;;;;;4998807;28;20136;-86
2021/12/19 07:14:31;;;;;;;24.80;11.07;;;7.60;99.90;;;;;;4998969;28;20034;-86
2021/12/19 07:16:56;;;;;;;20.63;10.10;;;7.60;99.90;;;;;;5014955;28;20826;-86
2021/12/19 07:19:24;;;;;;;18.27;8.33;;;7.70;99.90;;;;;;5032469;28;20053;-86
2021/12/19 07:21:50;;;;;;;18.87;9.43;;;7.70;99.90;;;;;;5014742;28;20056;-85
2021/12/19 07:24:16;;;;;;;17.63;8.43;;;7.70;99.90;;;;;;5015051;28;20127;-86
2021/12/19 07:26:42;;;;;;;19.60;9.10;;;7.70;99.90;;;;;;5015139;28;20057;-85
2021/12/19 07:29:08;;;;;;;22.00;10.53;;;7.60;99.90;;;;;;5014360;28;20040;-85
2021/12/19 07:31:37;;;;;;;17.50;9.17;;;7.60;99.90;;;;;;5014667;28;20033;-85
2021/12/19 07:34:03;;;;;;;14.10;6.90;;;7.60;99.90;;;;;;5014749;28;20037;-85
2021/12/19 07:36:36;;;;;;;13.37;6.37;;;7.60;99.90;;;;;;5014966;28;20030;-85
2021/12/19 07:39:09;;;;;;;13.53;6.87;;;7.60;99.90;;;;;;5030604;28;20025;-86
2021/12/19 07:41:35;;;;;;;12.77;6.80;;;7.60;99.90;;;;;;4998172;28;20037;-85
2021/12/19 07:44:00;;;;;;;14.37;7.50;;;7.60;99.90;;;;;;5015004;28;20036;-85
2021/12/19 07:46:28;;;;;;;14.00;7.03;;;7.60;99.90;;;;;;5015194;28;20034;-86
2021/12/19 07:48:54;;;;;;;12.83;6.60;;;7.60;99.90;;;;;;5014152;28;20037;-85
2021/12/19 07:51:20;;;;;;;15.13;7.07;;;7.60;99.90;;;;;;5015958;28;20072;-85
2021/12/19 07:53:45;;;;;;;13.73;6.73;;;7.60;99.90;;;;;;5015222;28;20029;-87
2021/12/19 07:56:11;;;;;;;12.83;7.10;;;7.50;99.90;;;;;;5032895;28;20032;-86
2021/12/19 07:58:37;;;;;;;11.97;6.30;;;7.50;99.90;;;;;;5014641;28;20322;-86
2021/12/19 08:01:03;;;;;;;12.97;7.00;;;7.50;99.90;;;;;;5014250;28;20064;-86
2021/12/19 08:03:28;;;;;;;13.03;6.47;;;7.50;99.90;;;;;;5031677;28;20109;-86
2021/12/19 08:05:54;;;;;;;15.03;8.33;;;7.50;99.90;;;;;;5015100;28;20042;-86
2021/12/19 08:08:26;;;;;;;12.93;7.73;;;7.50;99.90;;;;;;5014106;28;20025;-86
2021/12/19 08:13:40;;;;;;;13.50;6.73;;;7.50;99.90;;;;;;5032476;28;20034;-87
2021/12/19 08:16:07;;;;;;;12.63;6.53;;;7.50;99.90;;;;;;5014466;28;20032;-87
2021/12/19 08:18:34;;;;;;;11.33;5.77;;;7.50;99.90;;;;;;5014225;28;20109;-86
2021/12/19 08:21:00;;;;;;;14.47;7.17;;;7.60;99.90;;;;;;4997851;28;20033;-86
2021/12/19 08:23:25;;;;;;;12.83;6.30;;;7.50;99.90;;;;;;5014516;28;20119;-86
2021/12/19 08:25:51;;;;;;;14.67;6.60;;;7.50;99.90;;;;;;5014416;28;20076;-86
2021/12/19 08:28:17;;;;;;;12.70;6.87;;;7.50;99.90;;;;;;5013896;28;20084;-87
2021/12/19 08:30:43;;;;;;;12.33;6.87;;;7.60;99.90;;;;;;5014678;28;20041;-87
2021/12/19 08:33:08;;;;;;;13.27;6.90;;;7.60;99.90;;;;;;5014334;28;20033;-86
2021/12/19 08:35:34;;;;;;;12.43;6.77;;;7.60;99.90;;;;;;5013942;28;20128;-86
2021/12/19 08:38:00;;;;;;;12.77;6.70;;;7.60;99.90;;;;;;5013580;28;20029;-87
2021/12/19 08:40:28;;;;;;;11.93;6.07;;;7.60;99.90;;;;;;5014446;28;20045;-90
2021/12/19 08:42:54;;;;;;;13.17;7.10;;;7.60;99.90;;;;;;5014691;28;20524;-87
2021/12/19 08:45:23;;;;;;;13.00;7.13;;;7.60;99.90;;;;;;4998644;28;20029;-91
2021/12/19 08:47:51;;;;;;;12.30;6.43;;;7.60;99.90;;;;;;4999355;28;20091;-86
2021/12/19 08:50:18;;;;;;;15.33;7.13;;;7.60;99.90;;;;;;5012559;28;20044;-90
2021/12/19 08:52:44;;;;;;;14.60;7.63;;;7.70;99.90;;;;;;4981335;28;20156;-89
2021/12/19 08:55:11;;;;;;;12.90;7.00;;;7.70;99.90;;;;;;4982737;28;20030;-86
2021/12/19 08:57:37;;;;;;;14.93;7.30;;;7.70;99.90;;;;;;4979266;28;20041;-89
2021/12/19 09:00:08;;;;;;;12.00;7.10;;;7.70;99.90;;;;;;4980946;28;20026;-88
2021/12/19 09:02:34;;;;;;;12.00;6.50;;;7.70;99.90;;;;;;4994141;28;20053;-90
2021/12/19 09:05:01;;;;;;;13.50;7.07;;;7.70;99.90;;;;;;4984843;28;20057;-91
2021/12/19 09:07:27;;;;;;;12.23;6.97;;;7.80;99.90;;;;;;4995789;28;20048;-87
2021/12/19 09:09:53;;;;;;;13.17;6.97;;;7.80;99.90;;;;;;4994544;28;20034;-85
2021/12/19 09:12:19;;;;;;;15.23;7.30;;;7.80;99.90;;;;;;4994200;28;20449;-84
2021/12/19 09:14:46;;;;;;;16.93;7.97;;;7.80;99.90;;;;;;4994794;28;20045;-86
2021/12/19 09:17:12;;;;;;;16.07;8.03;;;7.90;99.90;;;;;;4995100;28;20030;-83
2021/12/19 09:19:38;;;;;;;14.87;7.50;;;7.90;99.90;;;;;;4997338;28;20026;-85
2021/12/19 09:22:04;;;;;;;14.23;7.60;;;7.90;99.90;;;;;;4997868;28;20096;-84
2021/12/19 09:24:30;;;;;;;13.43;7.00;;;8.00;99.90;;;;;;4999133;28;20125;-84
2021/12/19 09:26:56;;;;;;;13.17;6.67;;;8.00;99.90;;;;;;5000586;28;20061;-84
2021/12/19 09:29:26;;;;;;;12.77;7.00;;;8.00;99.90;;;;;;5018359;28;20034;-84
2021/12/19 09:31:52;;;;;;;11.53;6.53;;;8.00;99.90;;;;;;5017987;28;20029;-84
2021/12/19 09:34:17;;;;;;;11.70;6.40;;;8.00;99.90;;;;;;5018817;28;20083;-85
2021/12/19 09:36:43;;;;;;;13.10;6.40;;;8.00;99.90;;;;;;5002189;28;20075;-84
2021/12/19 09:39:09;;;;;;;13.97;6.30;;;8.10;99.90;;;;;;5002357;28;20449;-85
2021/12/19 09:41:42;;;;;;;13.47;7.13;;;8.00;99.90;;;;;;5017188;28;20101;-85
2021/12/19 09:44:11;;;;;;;13.13;6.53;;;8.00;99.90;;;;;;5018748;28;20033;-84
2021/12/19 09:46:42;;;;;;;14.80;7.67;;;8.00;99.90;;;;;;5018785;28;20022;-86
2021/12/19 09:49:11;;;;;;;13.30;6.87;;;8.00;99.90;;;;;;5001319;28;20272;-83
2021/12/19 09:51:37;;;;;;;11.48;5.80;;;8.00;99.90;;;;;;5000980;28;20026;-85
2021/12/19 09:54:05;;;;;;;11.30;6.63;;;8.00;99.90;;;;;;5017647;28;20034;-85
2021/12/19 09:56:33;;;;;;;12.13;6.07;;;8.00;99.90;;;;;;5017851;28;20035;-84
2021/12/19 09:59:00;;;;;;;11.00;5.80;;;7.90;99.90;;;;;;5034000;28;20451;-84
2021/12/19 10:01:26;;;;;;;8.77;5.10;;;7.90;99.90;;;;;;5017067;28;20037;-84
2021/12/19 10:03:52;;;;;;;10.70;5.50;;;8.00;99.90;;;;;;5015174;28;20500;-85
2021/12/19 10:06:22;;;;;;;10.03;5.00;;;8.00;99.90;;;;;;4996628;28;20030;-87
2021/12/19 10:09:06;;;;;;;9.63;5.50;;;8.00;99.90;;;;;;5012215;28;20097;-86
2021/12/19 10:11:45;;;;;;;10.27;5.07;;;8.00;99.90;;;;;;4998531;28;20426;-86
2021/12/19 10:14:26;;;;;;;9.93;5.30;;;8.00;99.90;;;;;;5018854;28;20025;-85
2021/12/19 10:16:53;;;;;;;8.53;4.77;;;8.00;99.90;;;;;;5002459;28;20040;-84
2021/12/19 10:19:19;;;;;;;9.70;4.40;;;8.00;99.90;;;;;;5000272;28;20029;-85
2021/12/19 10:21:45;;;;;;;7.67;4.33;;;8.00;99.90;;;;;;5017022;28;20686;-85
2021/12/19 10:24:29;;;;;;;7.70;4.20;;;7.90;99.90;;;;;;5017220;28;20029;-85
2021/12/19 10:26:55;;;;;;;7.93;4.60;;;8.00;99.90;;;;;;4997435;28;20034;-85
2021/12/19 10:29:41;;;;;;;7.70;4.03;;;8.00;99.90;;;;;;4993843;28;90647;-86
2021/12/19 10:32:07;;;;;;;8.83;4.70;;;8.00;99.90;;;;;;5001902;28;20136;-84
2021/12/19 10:34:33;;;;;;;10.00;4.90;;;8.00;99.90;;;;;;5000630;28;20265;-89
2021/12/19 10:36:59;;;;;;;7.17;4.17;;;7.90;99.90;;;;;;5001638;28;20032;-89
2021/12/19 10:39:35;;;;;;;8.63;4.20;;;7.90;99.90;;;;;;5000330;28;20025;-87
2021/12/19 10:42:01;;;;;;;6.17;3.83;;;7.90;99.90;;;;;;5000098;28;20021;-87
2021/12/19 10:47:28;;;;;;;6.40;3.10;;;7.80;99.90;;;;;;5016114;28;20045;-89
2021/12/19 10:49:54;;;;;;;4.83;2.77;;;7.80;99.90;;;;;;5007349;28;20033;-90
2021/12/19 10:52:39;;;;;;;6.17;3.00;;;7.80;99.90;;;;;;5008747;28;20052;-90
2021/12/19 10:55:09;;;;;;;7.00;3.17;;;7.80;99.90;;;;;;5002931;28;20033;-90
2021/12/19 10:57:38;;;;;;;5.40;2.97;;;7.70;99.90;;;;;;5020299;28;20060;-91
2021/12/19 11:00:22;;;;;;;5.40;2.93;;;7.70;99.90;;;;;;5001125;28;20067;-88
2021/12/19 11:02:48;;;;;;;8.60;3.10;;;7.70;99.90;;;;;;4999321;28;20041;-89
2021/12/19 11:05:39;;;;;;;7.07;2.63;;;7.70;99.90;;;;;;5000103;28;20041;-90
2021/12/19 11:08:08;;;;;;;6.37;2.50;;;7.70;99.90;;;;;;5004301;28;20033;-89
2021/12/19 11:10:36;;;;;;;5.47;2.80;;;7.80;99.90;;;;;;5020156;28;20048;-85
2021/12/19 11:13:22;;;;;;;4.20;2.23;;;7.80;99.90;;;;;;5022011;28;20030;-84
2021/12/19 11:15:49;;;;;;;3.00;1.60;;;7.90;99.90;;;;;;5004762;28;20041;-85
2021/12/19 11:18:15;;;;;;;3.10;1.30;;;7.90;99.90;;;;;;5005548;28;20025;-86
2021/12/19 11:20:42;;;;;;;3.70;1.30;;;7.90;99.90;;;;;;5035940;28;20108;-84
2021/12/19 11:23:08;;;;;;;2.90;1.33;;;8.00;99.90;;;;;;5016982;28;20057;-85
2021/12/19 11:25:35;;;;;;;2.77;1.30;;;8.10;99.90;;;;;;5002115;28;20095;-87
2021/12/19 11:28:02;;;;;;;3.40;1.33;;;8.00;99.90;;;;;;5000499;28;20057;-85
2021/12/19 11:30:29;;;;;;;2.43;1.40;;;7.90;99.90;;;;;;5017110;28;20040;-85
2021/12/19 11:32:59;;;;;;;3.73;1.30;;;7.90;99.90;;;;;;5001963;28;20030;-85
2021/12/19 11:35:31;;;;;;;2.53;1.30;;;7.80;99.90;;;;;;5001408;28;20412;-86
2021/12/19 11:38:00;;;;;;;3.37;1.60;;;7.80;99.90;;;;;;4997322;28;20452;-86
2021/12/19 11:40:31;;;;;;;3.50;1.50;;;7.70;99.90;;;;;;4998937;28;20064;-86
2021/12/19 11:43:06;;;;;;;3.60;1.50;;;7.60;99.90;;;;;;5016019;28;20040;-85
2021/12/19 11:45:40;;;;;;;3.70;1.70;;;7.70;99.90;;;;;;4999505;28;20356;-88
2021/12/19 11:48:23;;;;;;;6.70;2.93;;;7.70;99.90;;;;;;4996412;28;20034;-87
2021/12/19 11:50:55;;;;;;;5.50;2.50;;;7.60;99.90;;;;;;4983025;28;20571;-88
2021/12/19 11:53:37;;;;;;;4.03;2.00;;;7.70;99.90;;;;;;5002289;28;20083;-88
2021/12/19 11:56:04;;;;;;;4.07;2.00;;;7.70;99.90;;;;;;5001167;28;20034;-88
2021/12/19 11:58:37;;;;;;;6.17;2.27;;;7.80;99.90;;;;;;4984045;28;20064;-88
2021/12/19 12:01:09;;;;;;;5.20;1.70;;;7.90;99.90;;;;;;4999966;28;20431;-88
2021/12/19 12:04:14;;;;;;;4.93;2.00;;;7.70;99.90;;;;;;4997616;28;20026;-89
2021/12/19 12:06:49;;;;;;;2.67;1.43;;;7.80;99.90;;;;;;4978273;28;20121;-88
2021/12/19 12:09:39;;;;;;;7.40;3.43;;;7.80;99.90;;;;;;4979742;28;20065;-88
2021/12/19 12:12:15;;;;;;;4.10;1.43;;;7.90;99.90;;;;;;4996240;28;20373;-88
2021/12/19 12:14:56;;;;;;;5.53;2.20;;;7.90;99.90;;;;;;4996577;28;20030;-89
2021/12/19 12:17:34;;;;;;;3.60;1.63;;;7.90;99.90;;;;;;4996671;28;20100;-89
2021/12/19 12:20:18;;;;;;;4.73;1.63;;;7.90;99.90;;;;;;4996863;28;20129;-88
2021/12/19 12:22:53;;;;;;;1.73;0.90;;;7.90;99.90;;;;;;4980678;28;20029;-88
2021/12/19 12:25:27;;;;;;;3.33;1.50;;;7.80;99.90;;;;;;4994988;28;20029;-88
2021/12/19 12:28:02;;;;;;;5.13;2.60;;;7.80;99.90;;;;;;4978917;28;20057;-88
2021/12/19 12:30:29;;;;;;;2.50;1.30;;;7.80;99.90;;;;;;4979349;28;20029;-89
2021/12/19 12:32:58;;;;;;;5.67;2.30;;;7.80;99.90;;;;;;4978831;28;20034;-85
2021/12/19 12:35:25;;;;;;;4.25;1.80;;;7.80;99.90;;;;;;4994358;28;20030;-86
2021/12/19 12:37:51;;;;;;;4.63;2.00;;;7.80;99.90;;;;;;4994098;28;20053;-87
2021/12/19 12:40:28;;;;;;;3.80;1.60;;;7.70;99.90;;;;;;4994437;28;20030;-86
2021/12/19 12:43:08;;;;;;;3.07;1.70;;;7.80;99.90;;;;;;4994636;28;20130;-87
2021/12/19 12:46:17;;;;;;;4.83;1.60;;;7.80;99.90;;;;;;4994649;28;20117;-87
2021/12/19 12:49:01;;;;;;;4.95;1.88;;;7.80;99.90;;;;;;5005812;28;20046;-87
2021/12/19 12:52:01;;;;;;;17.23;8.70;;;7.80;99.90;;;;;;5006256;28;20041;-87
2021/12/19 12:54:34;;;;;;;12.50;6.50;;;7.80;99.90;;;;;;5001847;28;20049;-87
2021/12/19 12:57:02;;;;;;;6.93;3.70;;;7.80;99.90;;;;;;5009052;28;20068;-87
2021/12/19 12:59:36;;;;;;;4.57;2.50;;;7.80;99.90;;;;;;5009103;28;20096;-86
2021/12/19 13:02:10;;;;;;;7.00;3.67;;;7.90;99.90;;;;;;5007766;28;20087;-86
2021/12/19 13:04:37;;;;;;;5.97;3.10;;;7.90;99.90;;;;;;5024095;28;20038;-87
2021/12/19 13:07:05;;;;;;;6.33;2.87;;;7.80;99.90;;;;;;5006891;28;20038;-87
2021/12/19 13:09:44;;;;;;;6.67;2.90;;;7.80;99.90;;;;;;5022654;28;20041;-86
2021/12/19 13:12:20;;;;;;;5.60;2.50;;;7.80;99.90;;;;;;5020236;28;20037;-86
2021/12/19 13:15:09;;;;;;;8.27;2.70;;;7.80;99.90;;;;;;5023044;28;20037;-86
2021/12/19 13:17:43;;;;;;;;;;;7.80;99.90;;;;;;5006635;28;20029;-87
2021/12/19 13:20:14;;;;;;;5.63;2.23;;;7.80;99.90;;;;;;5002324;28;19909;-87
2021/12/19 13:22:45;;;;;;;5.23;2.37;;;7.80;99.90;;;;;;5004862;28;20548;-88
2021/12/19 13:25:12;;;;;;;5.13;2.40;;;7.80;99.90;;;;;;4997601;28;20038;-87
2021/12/19 13:27:44;;;;;;;4.93;2.40;;;7.80;99.90;;;;;;5014589;28;20029;-88
2021/12/19 13:30:19;;;;;;;6.23;2.53;;;7.70;99.90;;;;;;4997526;28;20826;-87
2021/12/19 13:32:49;;;;;;;10.23;3.30;;;7.70;99.90;;;;;;5013790;28;20022;-87
2021/12/19 13:35:22;;;;;;;;;;;7.70;99.90;;;;;;4998273;28;20088;-89
2021/12/19 13:38:18;;;;;;;5.70;3.20;;;7.70;99.90;;;;;;4997665;28;19987;-87
2021/12/19 13:40:51;;;;;;;6.27;2.67;;;7.70;99.90;;;;;;4997969;28;20033;-87
2021/12/19 13:43:32;;;;;;;6.40;3.47;;;7.60;99.90;;;;;;5014553;28;20045;-87
2021/12/19 13:45:59;;;;;;;6.33;3.10;;;7.60;99.90;;;;;;5015390;28;20032;-87
2021/12/19 13:48:25;;;;;;;7.37;3.30;;;7.60;99.90;;;;;;5017849;28;20040;-87
2021/12/19 13:50:54;;;;;;;7.77;3.20;;;7.60;99.90;;;;;;5001718;28;20030;-87
2021/12/19 13:53:20;;;;;;;7.75;3.28;;;7.70;99.90;;;;;;5002187;28;20033;-86
2021/12/19 13:55:45;;;;;;;6.77;3.23;;;7.70;99.90;;;;;;5017087;28;20515;-87
2021/12/19 13:58:12;;;;;;;7.10;3.30;;;7.70;99.90;;;;;;5001135;28;20088;-88
2021/12/19 14:00:42;;;;;;;9.67;3.60;;;7.70;99.90;;;;;;5001077;28;20465;-88
2021/12/19 14:03:09;;;;;;;9.07;3.60;;;7.70;99.90;;;;;;5017375;28;20068;-86
2021/12/19 14:05:44;;;;;;;6.87;3.03;;;7.60;99.90;;;;;;5021632;28;20440;-85
2021/12/19 14:08:29;;;;;;;8.03;2.93;;;7.70;99.90;;;;;;4999762;28;20033;-85